createdAt,value
2016-09-06T00:00:36.118Z,14.07
2016-09-06T00:01:35.268Z,14.02
2016-09-06T00:02:35.507Z,14.04
2016-09-06T00:03:34.910Z,13.99
2016-09-06T00:04:34.900Z,13.88
2016-09-06T00:05:34.896Z,13.91
2016-09-06T00:06:34.892Z,13.95
2016-09-06T00:07:34.894Z,14.03
2016-09-06T00:08:34.881Z,13.91
2016-09-06T00:09:34.871Z,13.87
2016-09-06T00:10:34.871Z,13.92
2016-09-06T00:11:34.862Z,13.89
2016-09-06T00:12:34.870Z,13.89
2016-09-06T00:13:34.867Z,13.96
2016-09-06T00:14:34.854Z,13.97
2016-09-06T00:15:34.852Z,13.88
2016-09-06T00:16:34.847Z,13.84
2016-09-06T00:17:35.132Z,13.88
2016-09-06T00:18:34.844Z,13.92
2016-09-06T00:19:34.822Z,13.89
2016-09-06T00:20:34.829Z,13.91
2016-09-06T00:21:34.819Z,13.87
2016-09-06T00:22:34.830Z,13.88
2016-09-06T00:23:34.812Z,13.89
2016-09-06T00:24:34.816Z,13.96
2016-09-06T00:25:34.794Z,13.87
2016-09-06T00:26:34.792Z,13.89
2016-09-06T00:27:34.798Z,13.87
2016-09-06T00:28:34.792Z,13.91
2016-09-06T00:29:34.786Z,13.87
2016-09-06T00:30:34.773Z,13.92
2016-09-06T00:31:34.784Z,13.87
2016-09-06T00:32:34.761Z,13.91
2016-09-06T00:33:34.773Z,13.88
2016-09-06T00:34:34.759Z,13.89
2016-09-06T00:35:34.767Z,13.92
2016-09-06T00:36:34.758Z,13.92
2016-09-06T00:37:34.750Z,13.88
2016-09-06T00:38:34.739Z,13.88
2016-09-06T00:39:34.739Z,13.87
2016-09-06T00:40:34.721Z,13.95
2016-09-06T00:41:34.736Z,13.85
2016-09-06T00:42:34.710Z,13.87
2016-09-06T00:43:35.359Z,13.78
2016-09-06T00:44:35.302Z,13.84
2016-09-06T00:45:37.182Z,13.77
2016-09-06T00:46:35.491Z,13.75
2016-09-06T00:47:35.813Z,13.77
2016-09-06T00:48:35.251Z,13.73
2016-09-06T00:49:34.693Z,13.75
2016-09-06T00:50:34.675Z,13.77
2016-09-06T00:51:34.689Z,13.69
2016-09-06T00:52:35.598Z,13.75
2016-09-06T00:53:35.665Z,13.69
2016-09-06T00:54:35.658Z,13.67
2016-09-06T00:55:34.650Z,13.66
2016-09-06T00:56:34.740Z,13.71
2016-09-06T00:57:34.964Z,13.62
2016-09-06T00:58:34.653Z,13.67
2016-09-06T00:59:34.706Z,13.57
2016-09-06T01:00:34.635Z,13.51
2016-09-06T01:01:34.632Z,13.57
2016-09-06T01:02:34.638Z,13.6
2016-09-06T01:03:34.616Z,13.59
2016-09-06T01:04:34.629Z,13.51
2016-09-06T01:05:34.604Z,13.54
2016-09-06T01:06:34.618Z,13.57
2016-09-06T01:07:34.604Z,13.52
2016-09-06T01:08:34.604Z,13.57
2016-09-06T01:10:35.138Z,13.44
2016-09-06T01:11:49.693Z,13.44
2016-09-06T01:12:34.631Z,13.38
2016-09-06T01:13:34.972Z,13.45
2016-09-06T01:14:49.582Z,13.32
2016-09-06T01:15:34.924Z,13.36
2016-09-06T01:16:34.556Z,13.22
2016-09-06T01:17:34.551Z,13.29
2016-09-06T01:18:35.236Z,13.22
2016-09-06T01:19:34.848Z,13.22
2016-09-06T01:20:34.693Z,13.23
2016-09-06T01:21:34.542Z,13.26
2016-09-06T01:22:34.571Z,13.25
2016-09-06T01:23:34.543Z,13.17
2016-09-06T01:24:34.507Z,13.25
2016-09-06T01:25:34.514Z,13.23
2016-09-06T01:26:34.499Z,13.19
2016-09-06T01:27:34.505Z,13.14
2016-09-06T01:28:34.505Z,13.14
2016-09-06T01:29:34.491Z,13.15
2016-09-06T01:30:34.481Z,13.15
2016-09-06T01:31:34.482Z,13.11
2016-09-06T01:32:34.479Z,13.11
2016-09-06T01:33:34.473Z,12.97
2016-09-06T01:34:34.464Z,12.96
2016-09-06T01:35:34.464Z,13
2016-09-06T01:36:34.453Z,12.9
2016-09-06T01:37:34.456Z,13
2016-09-06T01:38:34.440Z,12.97
2016-09-06T01:39:34.452Z,12.95
2016-09-06T01:40:34.434Z,13.03
2016-09-06T01:41:34.427Z,12.95
2016-09-06T01:42:34.421Z,12.92
2016-09-06T01:43:34.425Z,12.93
2016-09-06T01:44:34.422Z,12.82
2016-09-06T01:45:34.406Z,12.82
2016-09-06T01:46:34.403Z,12.9
2016-09-06T01:47:34.398Z,12.86
2016-09-06T01:48:34.393Z,12.78
2016-09-06T01:49:34.745Z,12.79
2016-09-06T01:50:34.378Z,12.67
2016-09-06T01:51:34.387Z,12.68
2016-09-06T01:52:34.381Z,12.64
2016-09-06T01:53:34.376Z,12.72
2016-09-06T01:54:34.368Z,12.67
2016-09-06T01:55:34.363Z,12.74
2016-09-06T01:56:34.351Z,12.7
2016-09-06T01:57:34.348Z,12.64
2016-09-06T01:58:34.344Z,12.64
2016-09-06T01:59:34.348Z,12.65
2016-09-06T02:00:34.331Z,12.62
2016-09-06T02:01:36.045Z,12.62
2016-09-06T02:02:34.333Z,12.54
2016-09-06T02:03:36.273Z,12.49
2016-09-06T02:04:34.913Z,12.47
2016-09-06T02:05:35.418Z,12.46
2016-09-06T02:06:34.299Z,12.47
2016-09-06T02:07:34.543Z,12.45
2016-09-06T02:08:34.280Z,12.45
2016-09-06T02:09:34.288Z,12.52
2016-09-06T02:10:37.681Z,12.5
2016-09-06T02:11:34.307Z,12.54
2016-09-06T02:12:34.764Z,12.59
2016-09-06T02:13:34.261Z,12.54
2016-09-06T02:14:34.533Z,12.56
2016-09-06T02:15:34.368Z,12.59
2016-09-06T02:16:34.242Z,12.57
2016-09-06T02:17:34.235Z,12.57
2016-09-06T02:18:34.235Z,12.56
2016-09-06T02:19:34.219Z,12.52
2016-09-06T02:20:34.227Z,12.53
2016-09-06T02:21:34.206Z,12.56
2016-09-06T02:22:34.220Z,12.45
2016-09-06T02:23:34.199Z,12.47
2016-09-06T02:24:34.206Z,12.49
2016-09-06T02:25:34.190Z,12.47
2016-09-06T02:26:34.189Z,12.47
2016-09-06T02:27:34.988Z,12.46
2016-09-06T02:28:35.419Z,12.47
2016-09-06T02:29:49.630Z,12.42
2016-09-06T02:30:34.523Z,12.37
2016-09-06T02:31:34.157Z,12.42
2016-09-06T02:32:34.157Z,12.49
2016-09-06T02:33:34.150Z,12.47
2016-09-06T02:34:34.302Z,12.38
2016-09-06T02:35:34.140Z,12.35
2016-09-06T02:36:34.978Z,12.29
2016-09-06T02:37:35.528Z,12.28
2016-09-06T02:38:34.126Z,12.31
2016-09-06T02:39:49.028Z,12.31
2016-09-06T02:40:34.162Z,12.29
2016-09-06T02:41:34.261Z,12.35
2016-09-06T02:42:34.086Z,12.28
2016-09-06T02:43:34.111Z,12.29
2016-09-06T02:44:34.175Z,12.27
2016-09-06T02:45:34.090Z,12.34
2016-09-06T02:46:34.077Z,12.2
2016-09-06T02:47:34.075Z,12.28
2016-09-06T02:48:34.057Z,12.21
2016-09-06T02:49:34.054Z,12.27
2016-09-06T02:50:34.057Z,12.32
2016-09-06T02:51:34.055Z,12.27
2016-09-06T02:52:34.037Z,12.24
2016-09-06T02:53:34.049Z,12.31
2016-09-06T02:54:34.031Z,12.31
2016-09-06T02:55:34.038Z,12.34
2016-09-06T02:56:34.014Z,12.34
2016-09-06T02:57:34.020Z,12.21
2016-09-06T02:58:34.019Z,12.31
2016-09-06T02:59:34.005Z,12.21
2016-09-06T03:00:33.993Z,12.27
2016-09-06T03:01:34.000Z,12.27
2016-09-06T03:02:33.991Z,12.32
2016-09-06T03:03:33.985Z,12.31
2016-09-06T03:04:33.976Z,12.28
2016-09-06T03:05:33.962Z,12.32
2016-09-06T03:06:33.961Z,12.27
2016-09-06T03:07:33.963Z,12.24
2016-09-06T03:08:33.974Z,12.14
2016-09-06T03:09:33.943Z,12.21
2016-09-06T03:10:33.945Z,12.13
2016-09-06T03:11:33.938Z,12.19
2016-09-06T03:12:33.941Z,12.19
2016-09-06T03:13:33.919Z,12.1
2016-09-06T03:14:34.220Z,12.17
2016-09-06T03:15:33.917Z,12.14
2016-09-06T03:16:33.919Z,12.12
2016-09-06T03:17:33.899Z,12.14
2016-09-06T03:18:33.903Z,12.13
2016-09-06T03:19:34.531Z,12.14
2016-09-06T03:20:35.154Z,12.13
2016-09-06T03:21:35.375Z,12.05
2016-09-06T03:22:34.171Z,12.19
2016-09-06T03:23:35.004Z,12.12
2016-09-06T03:24:33.873Z,12.13
2016-09-06T03:25:33.850Z,12.04
2016-09-06T03:26:33.866Z,12.07
2016-09-06T03:27:33.841Z,12.04
2016-09-06T03:29:36.300Z,11.95
2016-09-06T03:30:35.313Z,12.07
2016-09-06T03:31:34.602Z,12.04
2016-09-06T03:32:33.816Z,11.96
2016-09-06T03:33:33.809Z,11.95
2016-09-06T03:34:33.802Z,11.95
2016-09-06T03:35:33.795Z,11.91
2016-09-06T03:36:33.795Z,11.86
2016-09-06T03:37:33.784Z,11.85
2016-09-06T03:38:33.781Z,11.86
2016-09-06T03:39:33.766Z,11.83
2016-09-06T03:40:33.779Z,11.79
2016-09-06T03:41:33.755Z,11.78
2016-09-06T03:42:33.763Z,11.76
2016-09-06T03:43:33.743Z,11.7
2016-09-06T03:44:33.753Z,11.78
2016-09-06T03:45:34.592Z,11.72
2016-09-06T03:46:34.378Z,11.7
2016-09-06T03:47:33.921Z,11.7
2016-09-06T03:48:33.718Z,11.78
2016-09-06T03:49:33.703Z,11.65
2016-09-06T03:50:33.706Z,11.69
2016-09-06T03:51:33.704Z,11.67
2016-09-06T03:52:33.695Z,11.65
2016-09-06T03:53:33.687Z,11.76
2016-09-06T03:54:34.776Z,11.69
2016-09-06T03:55:34.637Z,11.67
2016-09-06T03:56:33.922Z,11.73
2016-09-06T03:57:33.710Z,11.75
2016-09-06T03:58:33.651Z,11.7
2016-09-06T03:59:33.952Z,11.64
2016-09-06T04:00:33.989Z,11.67
2016-09-06T04:01:33.642Z,11.69
2016-09-06T04:02:33.632Z,11.72
2016-09-06T04:03:33.624Z,11.65
2016-09-06T04:04:33.618Z,11.65
2016-09-06T04:05:33.622Z,11.69
2016-09-06T04:06:33.599Z,11.78
2016-09-06T04:07:33.604Z,11.72
2016-09-06T04:08:33.598Z,11.78
2016-09-06T04:09:33.911Z,11.69
2016-09-06T04:10:33.585Z,11.72
2016-09-06T04:11:33.581Z,11.73
2016-09-06T04:12:33.573Z,11.73
2016-09-06T04:13:33.570Z,11.69
2016-09-06T04:14:33.556Z,11.76
2016-09-06T04:15:33.555Z,11.7
2016-09-06T04:16:33.546Z,11.69
2016-09-06T04:17:33.550Z,11.69
2016-09-06T04:18:33.530Z,11.64
2016-09-06T04:19:33.527Z,11.72
2016-09-06T04:20:33.520Z,11.67
2016-09-06T04:21:33.519Z,11.7
2016-09-06T04:22:33.497Z,11.69
2016-09-06T04:23:33.495Z,11.67
2016-09-06T04:24:33.491Z,11.6
2016-09-06T04:25:33.496Z,11.62
2016-09-06T04:26:33.498Z,11.65
2016-09-06T04:27:33.473Z,11.52
2016-09-06T04:28:33.468Z,11.64
2016-09-06T04:29:33.459Z,11.69
2016-09-06T04:30:33.465Z,11.6
2016-09-06T04:31:33.449Z,11.62
2016-09-06T04:32:33.461Z,11.54
2016-09-06T04:33:33.437Z,11.64
2016-09-06T04:34:33.440Z,11.67
2016-09-06T04:35:33.427Z,11.67
2016-09-06T04:36:33.418Z,11.65
2016-09-06T04:37:36.413Z,11.75
2016-09-06T04:38:33.406Z,11.65
2016-09-06T04:39:34.297Z,11.67
2016-09-06T04:40:33.509Z,11.69
2016-09-06T04:41:34.642Z,11.75
2016-09-06T04:42:33.392Z,11.65
2016-09-06T04:43:33.379Z,11.78
2016-09-06T04:44:33.374Z,11.8
2016-09-06T04:45:33.366Z,11.86
2016-09-06T04:46:34.130Z,11.86
2016-09-06T04:47:35.184Z,11.78
2016-09-06T04:48:34.704Z,11.78
2016-09-06T04:49:34.236Z,11.88
2016-09-06T04:50:33.425Z,11.91
2016-09-06T04:51:33.691Z,11.98
2016-09-06T04:52:33.723Z,12.04
2016-09-06T04:53:33.332Z,12.07
2016-09-06T04:54:33.308Z,12.05
2016-09-06T04:55:33.316Z,12.12
2016-09-06T04:56:33.611Z,12.16
2016-09-06T04:57:33.308Z,12.21
2016-09-06T04:58:33.289Z,12.24
2016-09-06T04:59:33.289Z,12.29
2016-09-06T05:00:33.290Z,12.29
2016-09-06T05:01:33.277Z,12.42
2016-09-06T05:02:33.268Z,12.52
2016-09-06T05:03:34.366Z,12.62
2016-09-06T05:04:33.315Z,12.7
2016-09-06T05:05:33.259Z,12.79
2016-09-06T05:06:33.252Z,12.92
2016-09-06T05:07:33.250Z,13.07
2016-09-06T05:08:33.230Z,13.19
2016-09-06T05:09:33.239Z,13.19
2016-09-06T05:10:33.236Z,13.36
2016-09-06T05:11:33.333Z,13.39
2016-09-06T05:12:33.813Z,13.52
2016-09-06T05:13:33.624Z,13.69
2016-09-06T05:14:33.502Z,13.81
2016-09-06T05:15:33.493Z,13.87
2016-09-06T05:16:33.347Z,14.03
2016-09-06T05:17:33.191Z,14.17
2016-09-06T05:18:33.192Z,14.28
2016-09-06T05:19:33.178Z,14.27
2016-09-06T05:20:33.189Z,14.55
2016-09-06T05:21:33.178Z,14.62
2016-09-06T05:22:33.178Z,14.78
2016-09-06T05:23:33.166Z,15.01
2016-09-06T05:24:33.179Z,15.07
2016-09-06T05:25:33.155Z,15.09
2016-09-06T05:26:33.169Z,15.11
2016-09-06T05:27:33.150Z,15.19
2016-09-06T05:28:33.166Z,15.06
2016-09-06T05:29:33.151Z,15.13
2016-09-06T05:30:33.139Z,15.21
2016-09-06T05:31:33.138Z,15.34
2016-09-06T05:32:33.454Z,15.44
2016-09-06T05:33:33.141Z,15.56
2016-09-06T05:34:33.149Z,15.78
2016-09-06T05:35:33.131Z,16.02
2016-09-06T05:36:33.155Z,15.97
2016-09-06T05:37:33.131Z,16.09
2016-09-06T05:38:33.138Z,16.2
2016-09-06T05:39:33.130Z,16.24
2016-09-06T05:40:33.137Z,16.27
2016-09-06T05:41:33.135Z,16.56
2016-09-06T05:42:33.131Z,16.75
2016-09-06T05:43:33.120Z,17.07
2016-09-06T05:44:33.120Z,17.23
2016-09-06T05:45:33.140Z,17.51
2016-09-06T05:46:33.132Z,17.79
2016-09-06T05:47:33.124Z,17.92
2016-09-06T05:48:33.123Z,18.23
2016-09-06T05:49:33.119Z,18.35
2016-09-06T05:50:33.116Z,18.52
2016-09-06T05:51:33.139Z,18.67
2016-09-06T05:52:33.125Z,18.82
2016-09-06T05:53:33.129Z,19.02
2016-09-06T05:54:33.136Z,19.07
2016-09-06T05:56:36.085Z,18.98
2016-09-06T05:57:33.693Z,18.66
2016-09-06T05:58:33.309Z,18.52
2016-09-06T05:59:34.822Z,18.51
2016-09-06T06:00:33.150Z,18.57
2016-09-06T06:01:33.272Z,18.84
2016-09-06T06:02:33.149Z,18.98
2016-09-06T06:03:33.154Z,18.98
2016-09-06T06:04:33.604Z,19.29
2016-09-06T06:06:33.160Z,19.69
2016-09-06T06:07:33.162Z,19.66
2016-09-06T06:08:34.587Z,19.76
2016-09-06T06:09:33.177Z,19.92
2016-09-06T06:10:33.397Z,19.95
2016-09-06T06:11:33.184Z,19.88
2016-09-06T06:12:33.189Z,19.92
2016-09-06T06:13:33.179Z,20.05
2016-09-06T06:14:33.193Z,20.32
2016-09-06T06:15:33.197Z,20.66
2016-09-06T06:16:33.202Z,20.59
2016-09-06T06:17:33.207Z,20.55
2016-09-06T06:18:33.212Z,20.76
2016-09-06T06:19:33.212Z,21.07
2016-09-06T06:20:33.224Z,21.29
2016-09-06T06:21:34.986Z,21.56
2016-09-06T06:22:34.073Z,21.98
2016-09-06T06:23:34.142Z,22.07
2016-09-06T06:24:33.243Z,22.21
2016-09-06T06:25:33.255Z,22.37
2016-09-06T06:26:33.478Z,22.49
2016-09-06T06:27:33.263Z,22.54
2016-09-06T06:28:33.270Z,22.46
2016-09-06T06:29:33.273Z,22.6
2016-09-06T06:30:33.838Z,22.85
2016-09-06T06:31:33.599Z,22.95
2016-09-06T06:32:33.499Z,23.07
2016-09-06T06:33:33.303Z,22.91
2016-09-06T06:34:33.918Z,23.01
2016-09-06T06:35:33.902Z,23.12
2016-09-06T06:36:33.332Z,22.91
2016-09-06T06:37:33.329Z,22.67
2016-09-06T06:38:33.346Z,22.52
2016-09-06T06:39:33.350Z,22.47
2016-09-06T06:40:33.348Z,22.72
2016-09-06T06:41:33.364Z,23
2016-09-06T06:42:33.360Z,23.28
2016-09-06T06:43:33.389Z,23.54
2016-09-06T06:44:33.390Z,23.68
2016-09-06T06:45:33.398Z,23.47
2016-09-06T06:46:33.419Z,23.31
2016-09-06T06:47:33.414Z,23.17
2016-09-06T06:48:33.420Z,23.32
2016-09-06T06:49:33.433Z,23.61
2016-09-06T06:50:33.446Z,23.63
2016-09-06T06:51:33.435Z,23.73
2016-09-06T06:52:33.442Z,23.76
2016-09-06T06:53:33.473Z,23.85
2016-09-06T06:54:33.466Z,23.97
2016-09-06T06:55:33.484Z,23.79
2016-09-06T06:56:33.482Z,23.4
2016-09-06T06:57:33.503Z,22.92
2016-09-06T06:58:33.518Z,22.83
2016-09-06T06:59:33.501Z,22.98
2016-09-06T07:00:33.522Z,23.17
2016-09-06T07:01:33.519Z,23.13
2016-09-06T07:02:33.545Z,22.98
2016-09-06T07:03:33.541Z,22.86
2016-09-06T07:04:33.621Z,22.76
2016-09-06T07:05:33.567Z,22.62
2016-09-06T07:06:33.581Z,22.46
2016-09-06T07:07:33.582Z,22.17
2016-09-06T07:08:33.588Z,22.03
2016-09-06T07:09:33.600Z,22.12
2016-09-06T07:10:33.615Z,22.3
2016-09-06T07:11:33.916Z,22.55
2016-09-06T07:12:33.630Z,22.76
2016-09-06T07:13:34.589Z,22.92
2016-09-06T07:15:34.597Z,22.8
2016-09-06T07:16:34.741Z,22.46
2016-09-06T07:17:33.790Z,22.22
2016-09-06T07:18:33.672Z,22.28
2016-09-06T07:19:33.684Z,22.31
2016-09-06T07:20:33.701Z,22.15
2016-09-06T07:21:33.710Z,22.22
2016-09-06T07:22:34.571Z,22.46
2016-09-06T07:24:34.978Z,23.2
2016-09-06T07:25:35.262Z,23.4
2016-09-06T07:26:34.435Z,23.43
2016-09-06T07:27:33.768Z,23.83
2016-09-06T07:28:34.202Z,24.02
2016-09-06T07:29:34.292Z,23.94
2016-09-06T07:30:33.792Z,23.88
2016-09-06T07:31:33.798Z,23.39
2016-09-06T07:32:33.817Z,23.28
2016-09-06T07:33:33.825Z,23.13
2016-09-06T07:34:33.844Z,23.19
2016-09-06T07:35:33.835Z,22.91
2016-09-06T07:36:33.853Z,23.07
2016-09-06T07:37:33.857Z,22.91
2016-09-06T07:38:33.868Z,23.12
2016-09-06T07:40:34.382Z,23.13
2016-09-06T07:41:34.358Z,22.98
2016-09-06T07:42:33.903Z,22.94
2016-09-06T07:43:34.116Z,22.9
2016-09-06T07:44:33.933Z,22.79
2016-09-06T07:45:33.926Z,22.85
2016-09-06T07:46:33.942Z,22.9
2016-09-06T07:47:33.952Z,23.17
2016-09-06T07:48:33.978Z,23.28
2016-09-06T07:49:34.817Z,23.47
2016-09-06T07:50:33.986Z,23.68
2016-09-06T07:51:34.434Z,23.87
2016-09-06T07:52:34.011Z,24.03
2016-09-06T07:53:34.002Z,24.06
2016-09-06T07:54:34.212Z,24.1
2016-09-06T07:55:34.472Z,24.2
2016-09-06T07:56:34.033Z,24.09
2016-09-06T07:57:34.051Z,24.08
2016-09-06T07:58:34.040Z,24.03
2016-09-06T07:59:34.053Z,24
2016-09-06T08:00:34.060Z,23.98
2016-09-06T08:01:34.089Z,24.1
2016-09-06T08:02:34.079Z,23.97
2016-09-06T08:03:34.092Z,23.85
2016-09-06T08:04:34.117Z,23.79
2016-09-06T08:05:34.109Z,23.7
2016-09-06T08:06:34.130Z,23.72
2016-09-06T08:07:34.124Z,23.76
2016-09-06T08:08:34.151Z,23.93
2016-09-06T08:09:34.147Z,23.8
2016-09-06T08:10:34.158Z,23.72
2016-09-06T08:11:34.163Z,23.55
2016-09-06T08:12:34.182Z,23.27
2016-09-06T08:13:34.184Z,23.12
2016-09-06T08:14:34.192Z,22.92
2016-09-06T08:15:34.206Z,22.8
2016-09-06T08:16:34.205Z,22.67
2016-09-06T08:17:34.219Z,22.52
2016-09-06T08:18:34.216Z,22.37
2016-09-06T08:19:34.240Z,22.28
2016-09-06T08:20:34.238Z,21.98
2016-09-06T08:21:34.260Z,21.59
2016-09-06T08:22:34.256Z,21.4
2016-09-06T08:23:34.265Z,21.19
2016-09-06T08:24:34.263Z,21.01
2016-09-06T08:25:34.285Z,20.88
2016-09-06T08:26:34.298Z,20.82
2016-09-06T08:27:34.294Z,20.66
2016-09-06T08:28:34.292Z,20.61
2016-09-06T08:29:34.298Z,20.54
2016-09-06T08:30:34.302Z,20.42
2016-09-06T08:31:34.307Z,20.28
2016-09-06T08:32:34.358Z,20.23
2016-09-06T08:33:34.927Z,20.08
2016-09-06T08:34:35.471Z,20.06
2016-09-06T08:35:35.579Z,20.14
2016-09-06T08:36:34.483Z,19.91
2016-09-06T08:37:35.088Z,19.91
2016-09-06T08:38:34.326Z,19.84
2016-09-06T08:39:34.427Z,19.86
2016-09-06T08:40:34.330Z,19.94
2016-09-06T08:41:34.815Z,19.95
2016-09-06T08:42:35.467Z,20.08
2016-09-06T08:43:34.338Z,20.14
2016-09-06T08:44:36.248Z,20.1
2016-09-06T08:45:35.301Z,20.28
2016-09-06T08:46:34.337Z,20.26
2016-09-06T08:47:34.369Z,20.38
2016-09-06T08:48:34.331Z,20.55
2016-09-06T08:49:34.342Z,20.69
2016-09-06T08:50:34.600Z,20.74
2016-09-06T08:51:34.357Z,20.85
2016-09-06T08:52:34.355Z,20.79
2016-09-06T08:53:34.346Z,20.59
2016-09-06T08:54:34.348Z,20.51
2016-09-06T08:55:34.353Z,20.33
2016-09-06T08:56:34.346Z,20.08
2016-09-06T08:57:34.355Z,19.88
2016-09-06T08:58:35.450Z,19.73
2016-09-06T08:59:34.658Z,19.73
2016-09-06T09:00:34.353Z,19.84
2016-09-06T09:01:34.364Z,19.88
2016-09-06T09:02:49.769Z,19.81
2016-09-06T09:03:34.355Z,19.73
2016-09-06T09:04:34.519Z,19.78
2016-09-06T09:05:34.354Z,19.95
2016-09-06T09:06:34.365Z,20.05
2016-09-06T09:07:34.814Z,20.08
2016-09-06T09:08:35.373Z,19.92
2016-09-06T09:09:49.521Z,19.95
2016-09-06T09:10:34.363Z,20.01
2016-09-06T09:11:34.354Z,20.06
2016-09-06T09:12:34.962Z,20.16
2016-09-06T09:13:34.361Z,20.26
2016-09-06T09:14:34.370Z,20.35
2016-09-06T09:15:34.375Z,20.29
2016-09-06T09:16:34.373Z,20.41
2016-09-06T09:17:34.357Z,20.28
2016-09-06T09:18:34.369Z,20.35
2016-09-06T09:19:34.373Z,20.54
2016-09-06T09:20:34.380Z,20.57
2016-09-06T09:21:34.362Z,20.52
2016-09-06T09:22:34.387Z,20.42
2016-09-06T09:23:34.372Z,20.29
2016-09-06T09:24:34.381Z,20.28
2016-09-06T09:25:34.373Z,20.23
2016-09-06T09:26:34.382Z,20.14
2016-09-06T09:27:34.369Z,20.05
2016-09-06T09:28:34.376Z,19.96
2016-09-06T09:29:34.379Z,20.03
2016-09-06T09:30:34.386Z,19.91
2016-09-06T09:31:34.388Z,19.91
2016-09-06T09:32:34.380Z,19.96
2016-09-06T09:33:34.378Z,19.94
2016-09-06T09:34:34.378Z,20.08
2016-09-06T09:35:34.384Z,20.21
2016-09-06T09:36:34.384Z,20.36
2016-09-06T09:37:34.397Z,20.38
2016-09-06T09:38:34.377Z,20.52
2016-09-06T09:39:34.400Z,20.52
2016-09-06T09:40:34.390Z,20.55
2016-09-06T09:41:34.397Z,20.5
2016-09-06T09:42:34.393Z,20.35
2016-09-06T09:43:34.402Z,20.33
2016-09-06T09:44:34.397Z,20.21
2016-09-06T09:45:34.407Z,20.21
2016-09-06T09:46:34.383Z,20.38
2016-09-06T09:47:34.403Z,20.58
2016-09-06T09:48:34.394Z,20.74
2016-09-06T09:49:34.391Z,21.07
2016-09-06T09:50:36.062Z,21.13
2016-09-06T09:51:36.566Z,21.38
2016-09-06T09:52:36.941Z,21.52
2016-09-06T09:53:34.428Z,21.54
2016-09-06T09:54:35.182Z,21.5
2016-09-06T09:55:34.412Z,21.72
2016-09-06T09:56:34.408Z,21.92
2016-09-06T09:57:34.420Z,22.03
2016-09-06T09:58:34.406Z,22.28
2016-09-06T10:00:36.382Z,22.54
2016-09-06T10:01:36.939Z,22.55
2016-09-06T10:02:34.421Z,22.61
2016-09-06T10:03:34.414Z,22.62
2016-09-06T10:04:34.509Z,22.61
2016-09-06T10:05:34.738Z,22.57
2016-09-06T10:06:34.542Z,22.62
2016-09-06T10:07:34.426Z,22.62
2016-09-06T10:08:34.439Z,22.62
2016-09-06T10:09:34.427Z,22.62
2016-09-06T10:10:34.437Z,22.51
2016-09-06T10:11:34.434Z,22.3
2016-09-06T10:12:34.449Z,22.03
2016-09-06T10:13:34.446Z,21.83
2016-09-06T10:14:34.446Z,21.8
2016-09-06T10:15:34.452Z,21.62
2016-09-06T10:16:34.552Z,21.77
2016-09-06T10:17:34.447Z,21.82
2016-09-06T10:18:34.565Z,21.86
2016-09-06T10:19:35.111Z,21.86
2016-09-06T10:20:34.923Z,21.94
2016-09-06T10:21:34.564Z,21.92
2016-09-06T10:22:34.471Z,21.92
2016-09-06T10:23:34.468Z,22.09
2016-09-06T10:24:34.484Z,22.27
2016-09-06T10:25:35.222Z,22.27
2016-09-06T10:26:34.981Z,22.1
2016-09-06T10:27:34.494Z,21.8
2016-09-06T10:28:35.529Z,21.54
2016-09-06T10:29:35.323Z,21.37
2016-09-06T10:30:34.487Z,21.34
2016-09-06T10:31:34.486Z,21.17
2016-09-06T10:32:34.492Z,21.21
2016-09-06T10:33:34.485Z,21.22
2016-09-06T10:34:34.499Z,21.25
2016-09-06T10:35:34.493Z,21.19
2016-09-06T10:36:34.508Z,21.12
2016-09-06T10:38:34.510Z,21.13
2016-09-06T10:39:34.508Z,21.4
2016-09-06T10:40:34.508Z,21.46
2016-09-06T10:41:34.517Z,21.53
2016-09-06T10:42:34.521Z,21.72
2016-09-06T10:43:34.523Z,21.82
2016-09-06T10:44:34.508Z,22.07
2016-09-06T10:45:34.519Z,22.17
2016-09-06T10:46:34.519Z,22.21
2016-09-06T10:47:34.524Z,22.12
2016-09-06T10:48:34.533Z,21.9
2016-09-06T10:49:34.527Z,21.74
2016-09-06T10:50:34.879Z,21.47
2016-09-06T10:51:34.530Z,21.49
2016-09-06T10:52:34.557Z,21.43
2016-09-06T10:53:34.537Z,21.32
2016-09-06T10:54:34.553Z,21.17
2016-09-06T10:55:34.539Z,20.74
2016-09-06T10:56:34.566Z,20.62
2016-09-06T10:57:34.534Z,20.39
2016-09-06T10:58:34.543Z,20.36
2016-09-06T10:59:34.543Z,20.23
2016-09-06T11:00:34.555Z,20.03
2016-09-06T11:01:34.548Z,20.02
2016-09-06T11:02:34.546Z,19.86
2016-09-06T11:03:34.546Z,19.88
2016-09-06T11:04:34.562Z,19.92
2016-09-06T11:05:34.542Z,19.91
2016-09-06T11:06:34.564Z,19.92
2016-09-06T11:07:34.548Z,19.87
2016-09-06T11:08:35.505Z,19.84
2016-09-06T11:09:34.554Z,19.86
2016-09-06T11:10:35.545Z,19.83
2016-09-06T11:11:36.148Z,19.91
2016-09-06T11:12:35.547Z,19.95
2016-09-06T11:13:34.561Z,20.08
2016-09-06T11:14:34.764Z,20.1
2016-09-06T11:15:34.674Z,20.2
2016-09-06T11:16:34.565Z,20.17
2016-09-06T11:17:35.116Z,20.18
2016-09-06T11:18:34.553Z,20.17
2016-09-06T11:19:35.622Z,20.28
2016-09-06T11:20:36.418Z,20.29
2016-09-06T11:21:35.982Z,20.26
2016-09-06T11:22:34.722Z,20.21
2016-09-06T11:23:34.578Z,20.29
2016-09-06T11:24:34.879Z,20.39
2016-09-06T11:25:34.590Z,20.36
2016-09-06T11:26:34.554Z,20.36
2016-09-06T11:27:34.556Z,20.35
2016-09-06T11:28:34.570Z,20.36
2016-09-06T11:29:34.569Z,20.29
2016-09-06T11:30:34.560Z,20.29
2016-09-06T11:31:34.574Z,20.33
2016-09-06T11:32:34.558Z,20.31
2016-09-06T11:33:34.571Z,20.17
2016-09-06T11:34:34.768Z,20.08
2016-09-06T11:35:34.731Z,20.17
2016-09-06T11:36:36.015Z,20.14
2016-09-06T11:37:34.712Z,20.1
2016-09-06T11:38:34.759Z,20.02
2016-09-06T11:39:34.561Z,20.1
2016-09-06T11:40:35.068Z,20.01
2016-09-06T11:41:34.566Z,20.02
2016-09-06T11:42:34.556Z,20.08
2016-09-06T11:43:36.560Z,20.2
2016-09-06T11:44:36.521Z,20.18
2016-09-06T11:45:35.110Z,20.2
2016-09-06T11:46:34.575Z,20.29
2016-09-06T11:47:34.907Z,20.36
2016-09-06T11:48:34.575Z,20.42
2016-09-06T11:49:34.561Z,20.52
2016-09-06T11:50:34.564Z,20.59
2016-09-06T11:51:34.558Z,20.66
2016-09-06T11:52:34.564Z,20.76
2016-09-06T11:53:34.572Z,20.85
2016-09-06T11:54:34.566Z,20.94
2016-09-06T11:55:34.553Z,20.97
2016-09-06T11:56:34.586Z,20.98
2016-09-06T11:57:34.560Z,20.95
2016-09-06T11:58:34.565Z,20.91
2016-09-06T11:59:34.562Z,20.89
2016-09-06T12:00:34.569Z,20.94
2016-09-06T12:01:34.559Z,20.88
2016-09-06T12:02:34.571Z,20.87
2016-09-06T12:03:34.559Z,20.91
2016-09-06T12:04:34.575Z,20.91
2016-09-06T12:05:34.556Z,20.82
2016-09-06T12:06:34.564Z,20.84
2016-09-06T12:07:34.552Z,20.77
2016-09-06T12:08:34.569Z,20.8
2016-09-06T12:09:34.572Z,20.8
2016-09-06T12:10:34.564Z,20.89
2016-09-06T12:11:34.555Z,20.85
2016-09-06T12:12:34.560Z,20.88
2016-09-06T12:13:34.566Z,20.8
2016-09-06T12:14:34.562Z,20.79
2016-09-06T12:15:34.568Z,20.69
2016-09-06T12:16:34.559Z,20.7
2016-09-06T12:17:34.560Z,20.69
2016-09-06T12:18:34.556Z,20.72
2016-09-06T12:19:34.576Z,20.67
2016-09-06T12:20:34.564Z,20.74
2016-09-06T12:21:34.563Z,20.64
2016-09-06T12:22:34.560Z,20.66
2016-09-06T12:23:34.562Z,20.61
2016-09-06T12:24:34.583Z,20.64
2016-09-06T12:25:34.569Z,20.61
2016-09-06T12:26:36.076Z,20.7
2016-09-06T12:27:35.857Z,20.67
2016-09-06T12:28:35.114Z,20.73
2016-09-06T12:29:35.206Z,20.77
2016-09-06T12:30:35.051Z,20.8
2016-09-06T12:31:34.570Z,20.84
2016-09-06T12:32:34.556Z,20.87
2016-09-06T12:33:34.570Z,20.91
2016-09-06T12:34:34.557Z,20.98
2016-09-06T12:35:35.979Z,20.97
2016-09-06T12:36:35.647Z,20.97
2016-09-06T12:37:35.173Z,20.97
2016-09-06T12:38:35.412Z,20.97
2016-09-06T12:39:35.472Z,20.97
2016-09-06T12:40:35.042Z,20.97
2016-09-06T12:41:34.558Z,21.03
2016-09-06T12:42:34.577Z,21.07
2016-09-06T12:43:34.565Z,21.09
2016-09-06T12:44:34.577Z,21.07
2016-09-06T12:45:34.557Z,21.1
2016-09-06T12:46:34.567Z,21.06
2016-09-06T12:47:34.567Z,21.1
2016-09-06T12:48:34.870Z,21.07
2016-09-06T12:49:34.566Z,21.09
2016-09-06T12:50:34.657Z,21.09
2016-09-06T12:51:34.564Z,21.1
2016-09-06T12:52:35.712Z,21.17
2016-09-06T12:54:34.627Z,21.09
2016-09-06T12:55:34.559Z,20.99
2016-09-06T12:56:34.574Z,20.97
2016-09-06T12:57:34.557Z,20.97
2016-09-06T12:58:34.575Z,20.91
2016-09-06T12:59:34.562Z,20.94
2016-09-06T13:00:34.579Z,20.92
2016-09-06T13:01:35.126Z,20.85
2016-09-06T13:02:34.616Z,20.91
2016-09-06T13:03:35.314Z,20.92
2016-09-06T13:04:34.564Z,20.88